Time;durP1;ratioP1;P1;durP2;ratioP2;P2;SDS_P1;SDS_P2;PMS_P1;PMS_P2;Temp;Humidity;BMP_temperature;BMP_pressure;BME280_temperature;BME280_humidity;BME280_pressure;Samples;Min_cycle;Max_cycle;Signal;HPM_P1;HPM_P2
2021/04/25 00:00:44;;;;;;;12.88;6.28;;;;;;;8.07;55.69;101119.38;5056928;28;20136;-81
2021/04/25 00:03:10;;;;;;;13.10;7.15;;;;;;;8.06;55.86;101118.50;5070781;28;20132;-81
2021/04/25 00:05:36;;;;;;;11.13;6.53;;;;;;;8.01;56.30;101115.16;5059680;28;20518;-80
2021/04/25 00:08:05;;;;;;;12.95;6.95;;;;;;;7.92;56.17;101104.81;5058802;28;20095;-80
2021/04/25 00:10:34;;;;;;;12.48;6.63;;;;;;;7.91;56.42;101108.34;5065619;28;20044;-82
2021/04/25 00:13:00;;;;;;;11.80;6.90;;;;;;;7.95;56.48;101112.66;5064971;28;20049;-79
2021/04/25 00:15:26;;;;;;;11.20;6.68;;;;;;;7.95;56.66;101124.97;5052502;28;20060;-78
2021/04/25 00:17:53;;;;;;;16.00;7.50;;;;;;;7.94;56.66;101123.22;5059681;28;20064;-79
2021/04/25 00:20:21;;;;;;;14.15;7.32;;;;;;;7.92;56.39;101117.13;5077436;28;20049;-81
2021/04/25 00:22:49;;;;;;;15.98;6.55;;;;;;;7.94;56.61;101110.91;5069520;28;20056;-80
2021/04/25 00:25:16;;;;;;;11.55;6.43;;;;;;;7.93;56.57;101116.22;5085430;28;20383;-79
2021/04/25 00:27:43;;;;;;;12.50;6.53;;;;;;;7.87;56.42;101116.38;5083713;28;20065;-79
2021/04/25 00:30:13;;;;;;;9.88;6.85;;;;;;;7.83;56.79;101105.03;5066618;28;20049;-82
2021/04/25 00:32:39;;;;;;;11.38;6.43;;;;;;;7.84;56.64;101108.56;5084626;28;20054;-82
2021/04/25 00:35:08;;;;;;;10.38;6.75;;;;;;;7.80;56.78;101107.75;5064995;28;20045;-79
2021/04/25 00:37:34;;;;;;;12.82;6.82;;;;;;;7.82;57.09;101110.34;5065194;28;20041;-80
2021/04/25 00:40:01;;;;;;;12.50;6.47;;;;;;;7.81;57.15;101103.34;5073509;28;20120;-81
2021/04/25 00:42:30;;;;;;;12.27;6.78;;;;;;;7.71;57.30;101095.63;5075609;28;20073;-79
2021/04/25 00:44:58;;;;;;;11.45;6.32;;;;;;;7.68;57.37;101094.88;5072555;28;20056;-79
2021/04/25 00:47:24;;;;;;;11.05;6.18;;;;;;;7.70;57.17;101095.72;5071952;28;20064;-79
2021/04/25 00:50:00;;;;;;;12.73;6.57;;;;;;;7.66;57.30;101104.59;5072954;28;20079;-81
2021/04/25 00:52:27;;;;;;;10.65;6.22;;;;;;;7.63;57.69;101108.16;5068491;28;20120;-81
2021/04/25 00:54:53;;;;;;;11.18;6.00;;;;;;;7.60;57.55;101096.81;5069316;28;20486;-81
2021/04/25 00:57:21;;;;;;;10.05;6.53;;;;;;;7.61;57.63;101109.09;5042039;28;20108;-80
2021/04/25 00:59:48;;;;;;;12.30;6.75;;;;;;;7.55;58.01;101101.34;5061282;28;20056;-81
2021/04/25 01:02:16;;;;;;;12.70;6.50;;;;;;;7.57;57.46;101107.41;5063997;28;20044;-80
2021/04/25 01:04:42;;;;;;;10.60;6.13;;;;;;;7.56;57.41;101113.59;5069845;28;20044;-79
2021/04/25 01:07:09;;;;;;;11.00;6.65;;;;;;;7.51;57.86;101094.41;5071630;28;20069;-81
2021/04/25 01:09:35;;;;;;;13.77;6.90;;;;;;;7.47;57.73;101096.22;5042419;28;20060;-80
2021/04/25 01:12:03;;;;;;;12.95;6.60;;;;;;;7.47;58.15;101112.03;5062099;28;20059;-81
2021/04/25 01:14:31;;;;;;;13.50;6.53;;;;;;;7.40;58.19;101098.13;5059256;28;20144;-80
2021/04/25 01:16:57;;;;;;;11.20;7.13;;;;;;;7.42;58.43;101099.88;5059533;28;20247;-81
2021/04/25 01:19:23;;;;;;;10.63;5.97;;;;;;;7.39;58.36;101109.59;5060566;28;20041;-81
2021/04/25 01:21:49;;;;;;;13.85;6.22;;;;;;;7.35;58.73;101113.19;5055995;28;20053;-82
2021/04/25 01:24:15;;;;;;;17.75;7.18;;;;;;;7.27;58.73;101104.56;5061149;28;20132;-81
2021/04/25 01:26:42;;;;;;;14.52;6.60;;;;;;;7.25;58.92;101105.50;5061260;28;20052;-81
2021/04/25 01:29:08;;;;;;;14.80;7.00;;;;;;;7.25;58.61;101110.78;5057565;28;20053;-81
2021/04/25 01:31:34;;;;;;;10.40;6.18;;;;;;;7.17;58.66;101113.59;5055833;28;20087;-81
2021/04/25 01:34:02;;;;;;;14.02;6.75;;;;;;;7.12;59.04;101122.47;5065999;28;20403;-81
2021/04/25 01:36:28;;;;;;;11.23;6.88;;;;;;;7.04;59.18;101117.38;5056786;28;20049;-82
2021/04/25 01:38:55;;;;;;;12.70;6.18;;;;;;;7.01;59.61;101120.09;5060502;28;20057;-81
2021/04/25 01:41:21;;;;;;;15.45;6.57;;;;;;;6.99;59.50;101119.25;5065271;28;20070;-79
2021/04/25 01:43:48;;;;;;;13.85;6.00;;;;;;;6.97;59.58;101114.00;5070610;28;20053;-79
2021/04/25 01:46:15;;;;;;;11.35;6.22;;;;;;;6.95;59.75;101114.94;5069810;28;20047;-80
2021/04/25 01:48:44;;;;;;;14.43;6.57;;;;;;;6.94;60.05;101116.69;5065754;28;20100;-80
2021/04/25 01:51:11;;;;;;;14.00;6.88;;;;;;;6.90;59.43;101116.81;5045875;28;20387;-81
2021/04/25 01:53:39;;;;;;;11.45;6.20;;;;;;;6.86;59.72;101107.25;5065979;28;20056;-81
2021/04/25 01:56:07;;;;;;;11.15;6.22;;;;;;;6.81;60.17;101114.34;5072922;28;20064;-79
2021/04/25 01:58:33;;;;;;;12.43;6.13;;;;;;;6.77;59.43;101104.81;5055840;28;20117;-79
2021/04/25 02:01:00;;;;;;;13.43;5.95;;;;;;;6.76;59.87;101110.97;5071910;28;20045;-81
2021/04/25 02:03:26;;;;;;;13.00;5.80;;;;;;;6.76;59.44;101109.19;5065472;28;20044;-81
2021/04/25 02:05:55;;;;;;;10.60;5.82;;;;;;;6.65;59.91;101090.09;5057030;28;20040;-80
2021/04/25 02:08:23;;;;;;;10.77;5.82;;;;;;;6.75;59.53;101111.84;5064456;28;20048;-80
2021/04/25 02:10:50;;;;;;;11.20;5.20;;;;;;;6.68;59.01;101109.34;5063499;28;20060;-82
2021/04/25 02:13:18;;;;;;;12.98;5.63;;;;;;;6.67;58.86;101098.84;5060350;28;20547;-81
2021/04/25 02:15:45;;;;;;;9.82;5.38;;;;;;;6.67;59.03;101102.34;5063546;28;20099;-82
2021/04/25 02:18:15;;;;;;;10.35;5.25;;;;;;;6.63;58.73;101105.91;5069124;28;20045;-81
2021/04/25 02:20:41;;;;;;;10.75;5.57;;;;;;;6.55;59.39;101105.22;5067838;28;20041;-79
2021/04/25 02:23:09;;;;;;;11.07;5.07;;;;;;;6.51;59.18;101105.28;5071075;28;20076;-80
2021/04/25 02:25:35;;;;;;;10.93;5.32;;;;;;;6.53;59.00;101104.38;5070258;28;20045;-80
2021/04/25 02:28:02;;;;;;;11.27;4.80;;;;;;;6.54;58.52;101106.09;5060326;28;20457;-81
2021/04/25 02:30:31;;;;;;;11.63;5.35;;;;;;;6.45;58.57;101095.78;5057773;28;20103;-80
2021/04/25 02:32:59;;;;;;;10.05;4.30;;;;;;;6.42;58.64;101093.19;5062053;28;20669;-80
2021/04/25 02:35:27;;;;;;;9.30;4.40;;;;;;;6.42;58.65;101111.59;5055339;28;20057;-81
2021/04/25 02:37:54;;;;;;;9.18;4.70;;;;;;;6.28;58.13;101090.81;5059526;28;20049;-81
2021/04/25 02:40:23;;;;;;;11.45;4.20;;;;;;;6.40;58.57;101116.03;5057321;28;20069;-82
2021/04/25 02:42:51;;;;;;;9.98;4.50;;;;;;;6.36;57.57;101114.34;5065928;28;20045;-81
2021/04/25 02:45:19;;;;;;;10.15;4.30;;;;;;;6.34;57.91;101118.75;5066715;28;20049;-80
2021/04/25 02:47:49;;;;;;;9.77;4.20;;;;;;;6.31;58.05;101119.66;5061011;28;20041;-80
2021/04/25 02:50:16;;;;;;;11.32;4.22;;;;;;;6.28;58.16;101111.88;5039058;28;20131;-79
2021/04/25 02:52:43;;;;;;;10.02;3.95;;;;;;;6.24;57.58;101117.19;5069998;28;20049;-80
2021/04/25 02:55:10;;;;;;;11.25;3.97;;;;;;;6.19;57.84;101113.75;5052651;28;20080;-79
2021/04/25 02:57:38;;;;;;;14.95;4.40;;;;;;;6.20;57.71;101128.66;5066078;28;20442;-81
2021/04/25 03:00:10;;;;;;;9.23;3.85;;;;;;;6.15;57.32;101117.34;5037701;28;20053;-80
2021/04/25 03:02:36;;;;;;;8.18;3.85;;;;;;;6.12;57.47;101122.69;5063629;28;20079;-81
2021/04/25 03:05:04;;;;;;;12.48;3.90;;;;;;;6.04;57.54;101120.16;5056491;28;20059;-81
2021/04/25 03:07:30;;;;;;;8.23;3.63;;;;;;;6.00;57.16;101110.59;5058234;28;20132;-81
2021/04/25 03:09:56;;;;;;;6.40;3.10;;;;;;;6.00;57.59;101121.09;5053543;28;20056;-81
2021/04/25 03:12:22;;;;;;;11.38;3.85;;;;;;;6.00;57.46;101126.34;5044995;28;20040;-81
2021/04/25 03:14:49;;;;;;;8.35;3.72;;;;;;;5.98;58.05;101130.81;5057770;28;20067;-80
2021/04/25 03:17:15;;;;;;;9.35;3.33;;;;;;;5.96;58.08;101128.19;5063248;28;20135;-81
2021/04/25 03:19:41;;;;;;;8.15;3.50;;;;;;;6.01;56.80;101124.59;5059154;28;20037;-80
2021/04/25 03:22:07;;;;;;;7.68;3.17;;;;;;;5.98;57.43;101128.16;5056581;28;20052;-80
2021/04/25 03:24:34;;;;;;;7.30;3.15;;;;;;;5.91;57.30;101126.53;5058317;28;20069;-80
2021/04/25 03:27:01;;;;;;;6.78;3.00;;;;;;;5.87;56.92;101122.16;5070684;28;20110;-80
2021/04/25 03:29:27;;;;;;;6.28;2.80;;;;;;;5.86;56.94;101128.31;5058037;28;20843;-80
2021/04/25 03:31:54;;;;;;;8.60;3.00;;;;;;;5.78;57.14;101127.56;5056038;28;20411;-80
2021/04/25 03:34:20;;;;;;;6.57;2.53;;;;;;;5.71;57.35;101128.56;5060854;28;20487;-81
2021/04/25 03:36:47;;;;;;;6.53;2.70;;;;;;;5.68;57.41;101120.72;5059722;28;20105;-81
2021/04/25 03:39:13;;;;;;;6.15;2.38;;;;;;;5.64;57.27;101122.53;5056915;28;20113;-81
2021/04/25 03:41:41;;;;;;;8.32;2.72;;;;;;;5.64;57.26;101119.91;5040195;28;20044;-82
2021/04/25 03:44:09;;;;;;;4.80;2.60;;;;;;;5.58;57.27;101120.00;5060029;28;20064;-82
2021/04/25 03:46:36;;;;;;;4.75;2.65;;;;;;;5.47;57.36;101117.53;5040051;28;20456;-82
2021/04/25 03:49:03;;;;;;;6.70;2.55;;;;;;;5.45;57.55;101124.56;5073417;28;20069;-80
2021/04/25 03:51:30;;;;;;;5.28;2.30;;;;;;;5.40;58.29;101125.50;5061951;28;20118;-81
2021/04/25 03:53:57;;;;;;;10.00;2.70;;;;;;;5.46;58.03;101130.69;5059137;28;20052;-80
2021/04/25 03:56:23;;;;;;;5.07;2.70;;;;;;;5.42;58.05;101129.84;5070542;28;20064;-81
2021/04/25 03:58:49;;;;;;;5.90;2.30;;;;;;;5.37;58.16;101129.03;5058480;28;20123;-81
2021/04/25 04:01:16;;;;;;;9.07;2.17;;;;;;;5.37;57.81;101130.78;5069647;28;20080;-79
2021/04/25 04:03:45;;;;;;;5.53;2.15;;;;;;;5.36;58.04;101124.69;5074315;28;20049;-80
2021/04/25 04:06:12;;;;;;;5.40;2.75;;;;;;;5.32;58.06;101119.50;5047096;28;20079;-80
2021/04/25 04:08:38;;;;;;;8.02;2.15;;;;;;;5.29;58.91;101123.91;5060913;28;20049;-80
2021/04/25 04:11:04;;;;;;;5.78;2.40;;;;;;;5.29;58.81;101125.66;5056935;28;20084;-80
2021/04/25 04:13:31;;;;;;;5.25;2.38;;;;;;;5.29;58.23;101133.53;5058402;28;20045;-80
2021/04/25 04:15:57;;;;;;;6.40;2.22;;;;;;;5.22;58.86;101137.13;5058825;28;20136;-80
2021/04/25 04:18:23;;;;;;;5.25;2.03;;;;;;;5.19;58.85;101135.44;5054478;28;20159;-81
2021/04/25 04:20:49;;;;;;;7.32;2.58;;;;;;;5.16;58.99;101131.97;5057415;28;20063;-80
2021/04/25 04:23:16;;;;;;;8.70;2.50;;;;;;;5.17;58.91;101129.34;5029998;28;20071;-80
2021/04/25 04:25:43;;;;;;;4.40;2.30;;;;;;;5.16;59.04;101137.22;5045618;28;20044;-80
2021/04/25 04:28:09;;;;;;;7.35;2.70;;;;;;;5.17;58.98;101139.84;5049479;28;20049;-81
2021/04/25 04:30:38;;;;;;;6.82;2.53;;;;;;;5.15;58.91;101136.34;5063569;28;20133;-80
2021/04/25 04:33:04;;;;;;;5.72;2.55;;;;;;;5.23;59.41;101138.88;5054660;28;20108;-80
2021/04/25 04:35:33;;;;;;;11.25;3.08;;;;;;;5.24;58.57;101136.22;5059688;28;20044;-79
2021/04/25 04:37:59;;;;;;;7.28;2.17;;;;;;;5.23;58.70;101142.38;5073872;28;20025;-80
2021/04/25 04:40:25;;;;;;;7.50;2.20;;;;;;;5.18;59.04;101136.31;5068035;28;20071;-80
2021/04/25 04:42:52;;;;;;;7.25;2.42;;;;;;;5.21;58.90;101140.63;5042362;28;20045;-80
2021/04/25 04:45:21;;;;;;;7.50;2.30;;;;;;;5.21;58.90;101145.91;5060512;28;20052;-80
2021/04/25 04:47:47;;;;;;;6.30;2.65;;;;;;;5.22;58.74;101142.38;5054237;28;20156;-80
2021/04/25 04:50:17;;;;;;;7.20;2.50;;;;;;;5.22;59.37;101152.88;5059069;28;20099;-79
2021/04/25 04:52:46;;;;;;;6.60;2.20;;;;;;;5.21;58.74;101151.16;5060776;28;20136;-83
2021/04/25 04:55:15;;;;;;;4.38;2.30;;;;;;;5.29;58.99;101154.56;5063298;28;20091;-80
2021/04/25 04:57:43;;;;;;;9.30;2.20;;;;;;;5.31;58.70;101162.41;5058712;28;20070;-81
2021/04/25 05:00:12;;;;;;;5.70;2.35;;;;;;;5.27;58.77;101151.06;5063119;28;20053;-79
2021/04/25 05:02:40;;;;;;;6.20;2.60;;;;;;;5.28;58.82;101151.06;5064440;28;20049;-79
2021/04/25 05:05:09;;;;;;;6.18;2.45;;;;;;;5.28;59.22;101148.44;5065314;28;20412;-81
2021/04/25 05:07:35;;;;;;;4.63;2.10;;;;;;;5.37;59.11;101150.06;5045435;28;20068;-81
2021/04/25 05:10:03;;;;;;;6.25;2.78;;;;;;;5.43;58.32;101157.00;5065513;28;20124;-81
2021/04/25 05:12:29;;;;;;;7.05;2.63;;;;;;;5.42;59.29;101150.88;5063832;28;20079;-80
2021/04/25 05:14:55;;;;;;;6.25;2.60;;;;;;;5.45;58.44;101165.72;5065645;28;20041;-79
2021/04/25 05:17:21;;;;;;;8.55;2.47;;;;;;;5.41;58.50;101164.88;5063453;28;20467;-81
2021/04/25 05:19:48;;;;;;;4.88;2.15;;;;;;;5.40;58.73;101159.66;5063529;28;20079;-79
2021/04/25 05:22:15;;;;;;;7.72;2.75;;;;;;;5.41;58.72;101166.66;5075666;28;20127;-79
2021/04/25 05:24:41;;;;;;;6.63;2.67;;;;;;;5.47;58.69;101164.81;5074640;28;20069;-78
2021/04/25 05:27:07;;;;;;;6.53;2.65;;;;;;;5.46;58.71;101159.59;5074904;28;20112;-79
2021/04/25 05:29:33;;;;;;;8.25;2.63;;;;;;;5.57;58.66;101176.91;5077432;28;20380;-79
2021/04/25 05:32:00;;;;;;;4.75;2.28;;;;;;;5.56;58.75;101169.06;5060077;28;20480;-81
2021/04/25 05:34:27;;;;;;;6.68;2.70;;;;;;;5.64;58.06;101177.72;5054857;28;20056;-80
2021/04/25 05:36:53;;;;;;;9.45;2.53;;;;;;;5.73;58.05;101180.19;5042629;28;20083;-81
2021/04/25 05:39:19;;;;;;;7.65;2.58;;;;;;;5.68;57.92;101158.38;5058567;28;20076;-81
2021/04/25 05:41:45;;;;;;;8.68;2.65;;;;;;;5.84;58.33;101190.53;5063899;28;20056;-81
2021/04/25 05:44:12;;;;;;;4.50;2.30;;;;;;;5.89;57.64;101189.63;5058672;28;20048;-81
2021/04/25 05:46:38;;;;;;;7.13;2.40;;;;;;;5.92;57.87;101186.97;5048255;28;20048;-79
2021/04/25 05:49:05;;;;;;;6.53;2.20;;;;;;;5.95;57.59;101186.03;5049036;28;20052;-80
2021/04/25 05:51:31;;;;;;;9.43;2.75;;;;;;;5.99;57.65;101188.59;5067889;28;20369;-79
2021/04/25 05:53:58;;;;;;;6.85;2.60;;;;;;;6.04;57.96;101195.53;5072129;28;20076;-81
2021/04/25 05:56:27;;;;;;;6.72;2.55;;;;;;;6.07;57.25;101192.88;5069368;28;20045;-79
2021/04/25 05:58:54;;;;;;;8.35;2.47;;;;;;;6.11;57.32;101191.94;5074364;28;20049;-79
2021/04/25 06:01:20;;;;;;;5.30;3.17;;;;;;;6.21;57.34;101198.78;5069879;28;20108;-79
2021/04/25 06:03:46;;;;;;;6.65;2.60;;;;;;;6.27;57.19;101206.56;5065613;28;20042;-80
2021/04/25 06:06:14;;;;;;;6.22;2.42;;;;;;;6.39;57.03;101202.84;5064875;28;20384;-79
2021/04/25 06:08:40;;;;;;;9.93;2.78;;;;;;;6.46;56.04;101197.44;5048570;28;20076;-78
2021/04/25 06:11:06;;;;;;;8.23;2.92;;;;;;;6.59;56.36;101206.91;5063361;28;20111;-80
2021/04/25 06:13:32;;;;;;;8.32;3.05;;;;;;;6.62;55.97;101195.41;5063635;28;20083;-79
2021/04/25 06:15:58;;;;;;;6.07;2.78;;;;;;;6.76;55.72;101201.31;5065085;28;20064;-80
2021/04/25 06:18:24;;;;;;;8.52;3.03;;;;;;;6.93;55.81;101204.47;5067660;28;20111;-80
2021/04/25 06:20:52;;;;;;;9.52;3.20;;;;;;;7.49;53.61;101199.84;5061725;28;20045;-81
2021/04/25 06:23:18;;;;;;;9.75;2.80;;;;;;;9.04;49.31;101198.66;5045524;28;20059;-78
2021/04/25 06:25:44;;;;;;;7.07;3.00;;;;;;;10.58;45.71;101211.53;5070266;28;20080;-79
2021/04/25 06:28:10;;;;;;;11.35;2.97;;;;;;;11.68;43.40;101206.63;5067681;28;20044;-79
2021/04/25 06:30:37;;;;;;;6.55;2.97;;;;;;;12.74;40.31;101206.75;5072454;28;20117;-78
2021/04/25 06:33:04;;;;;;;5.90;2.63;;;;;;;13.64;38.11;101208.91;5067870;28;20073;-81
2021/04/25 06:35:30;;;;;;;7.35;2.72;;;;;;;14.21;37.37;101212.38;5049364;28;20053;-81
2021/04/25 06:37:56;;;;;;;5.38;2.45;;;;;;;14.62;35.92;101202.34;5046079;28;20052;-82
2021/04/25 06:40:23;;;;;;;7.03;3.08;;;;;;;14.37;35.60;101210.66;5058291;28;20132;-81
2021/04/25 06:42:51;;;;;;;7.88;2.67;;;;;;;14.79;35.42;101212.16;5067720;28;20040;-82
2021/04/25 06:45:21;;;;;;;11.85;2.97;;;;;;;14.61;35.77;101215.75;5062168;28;20114;-80
2021/04/25 06:47:51;;;;;;;5.90;2.50;;;;;;;14.76;35.24;101209.66;5064742;28;20064;-82
2021/04/25 06:50:20;;;;;;;5.32;2.67;;;;;;;15.84;34.27;101211.00;5049497;28;20042;-82
2021/04/25 06:52:48;;;;;;;7.35;2.92;;;;;;;16.18;32.70;101216.16;5065324;28;20076;-78
2021/04/25 06:55:18;;;;;;;8.93;3.20;;;;;;;16.09;32.62;101209.50;5073213;28;20043;-81
2021/04/25 06:57:45;;;;;;;7.10;2.85;;;;;;;16.55;32.22;101205.97;5080988;28;20052;-81
2021/04/25 07:00:12;;;;;;;7.13;2.85;;;;;;;17.18;31.12;101214.66;5068484;28;20060;-80
2021/04/25 07:02:38;;;;;;;9.88;3.33;;;;;;;16.43;32.03;101189.72;5077907;28;20049;-83
2021/04/25 07:05:06;;;;;;;8.15;2.92;;;;;;;16.39;32.46;101219.38;5074460;28;20045;-82
2021/04/25 07:07:33;;;;;;;8.70;3.10;;;;;;;15.99;33.18;101227.00;5072590;28;20060;-82
2021/04/25 07:10:04;;;;;;;7.10;3.03;;;;;;;16.41;32.71;101215.66;5075525;28;20036;-81
2021/04/25 07:12:31;;;;;;;6.72;3.22;;;;;;;17.08;32.08;101225.06;5065982;28;20029;-81
2021/04/25 07:14:58;;;;;;;7.07;3.58;;;;;;;17.23;31.17;101223.28;5068823;28;20070;-83
2021/04/25 07:17:26;;;;;;;4.53;2.85;;;;;;;17.51;31.15;101223.28;5078193;28;20444;-83
2021/04/25 07:19:53;;;;;;;6.95;3.78;;;;;;;17.23;31.28;101227.75;5066769;28;20578;-83
2021/04/25 07:22:19;;;;;;;9.93;3.30;;;;;;;17.49;30.79;101216.28;5064391;28;20048;-83
2021/04/25 07:24:47;;;;;;;8.95;3.60;;;;;;;17.71;30.35;101187.22;5078423;28;20112;-84
2021/04/25 07:27:14;;;;;;;6.75;3.20;;;;;;;17.23;31.02;101222.41;5074176;28;20075;-81
2021/04/25 07:29:40;;;;;;;6.55;3.33;;;;;;;17.47;31.16;101220.91;5072397;28;20048;-79
2021/04/25 07:32:06;;;;;;;6.65;2.92;;;;;;;17.25;31.06;101225.84;5060972;28;20098;-81
2021/04/25 07:34:35;;;;;;;8.82;3.67;;;;;;;17.07;31.90;101228.69;5058469;28;20056;-83
2021/04/25 07:37:05;;;;;;;7.30;3.35;;;;;;;17.57;31.10;101232.75;5056254;28;20045;-80
2021/04/25 07:39:36;;;;;;;6.78;3.28;;;;;;;16.90;31.69;101236.03;5052405;28;20136;-84
2021/04/25 07:42:04;;;;;;;7.03;3.80;;;;;;;16.36;32.62;101235.63;5054646;28;20037;-83
2021/04/25 07:44:30;;;;;;;9.07;3.58;;;;;;;16.63;32.85;101230.50;5053086;28;20411;-82
2021/04/25 07:46:56;;;;;;;9.35;3.80;;;;;;;17.03;32.14;101215.59;5042840;28;20048;-82
2021/04/25 07:49:24;;;;;;;7.32;3.50;;;;;;;17.33;33.60;101218.19;5054630;28;20424;-82
2021/04/25 07:51:53;;;;;;;6.25;3.28;;;;;;;17.94;31.05;101222.41;5057147;28;20088;-82
2021/04/25 07:54:20;;;;;;;8.90;3.85;;;;;;;17.72;30.74;101223.78;5059712;28;20049;-81
2021/04/25 07:56:47;;;;;;;7.38;3.58;;;;;;;17.82;30.22;101227.59;5063332;28;20156;-83
2021/04/25 07:59:13;;;;;;;8.70;3.83;;;;;;;18.03;30.72;101220.00;5058244;28;20045;-81
2021/04/25 08:01:39;;;;;;;7.32;3.45;;;;;;;17.70;31.08;101222.16;5067785;28;20064;-82
2021/04/25 08:04:08;;;;;;;6.18;3.58;;;;;;;17.15;32.42;101213.06;5052994;28;20055;-85
2021/04/25 08:06:39;;;;;;;6.45;3.55;;;;;;;17.03;33.55;101227.16;5069403;28;20075;-84
2021/04/25 08:09:09;;;;;;;6.50;3.92;;;;;;;17.31;31.11;101225.50;5049255;28;20072;-82
2021/04/25 08:11:37;;;;;;;5.18;3.40;;;;;;;18.03;31.48;101213.78;5063027;28;20117;-83
2021/04/25 08:14:04;;;;;;;8.30;3.85;;;;;;;18.37;29.53;101223.16;5065696;28;20081;-81
2021/04/25 08:16:34;;;;;;;5.35;3.40;;;;;;;17.77;30.83;101227.03;5063597;28;20041;-80
2021/04/25 08:19:02;;;;;;;7.55;3.28;;;;;;;17.14;31.86;101203.31;5069049;28;20049;-82
2021/04/25 08:21:33;;;;;;;7.47;3.83;;;;;;;16.58;31.90;101197.78;5060854;28;20038;-84
2021/04/25 08:24:06;;;;;;;8.57;4.47;;;;;;;16.48;32.82;101198.34;5059390;28;20045;-82
2021/04/25 08:26:40;;;;;;;7.07;3.83;;;;;;;15.78;33.74;101228.19;5067604;28;20059;-79
2021/04/25 08:29:09;;;;;;;7.28;3.50;;;;;;;15.32;35.76;101195.13;5076248;28;20048;-79
2021/04/25 08:31:37;;;;;;;7.15;4.00;;;;;;;14.91;36.23;101221.31;5073083;28;20105;-82
2021/04/25 08:34:06;;;;;;;9.15;5.20;;;;;;;13.84;38.07;101223.94;5059071;28;20052;-82
2021/04/25 08:36:33;;;;;;;14.93;8.57;;;;;;;13.29;41.01;101222.94;5065200;28;20045;-83
2021/04/25 08:39:02;;;;;;;7.40;4.13;;;;;;;12.80;40.92;101234.84;5067155;28;20049;-82
2021/04/25 08:41:30;;;;;;;9.77;3.83;;;;;;;12.40;42.51;101204.66;5065169;28;20301;-79
2021/04/25 08:43:59;;;;;;;11.05;4.28;;;;;;;12.15;43.40;101226.03;5066054;28;20075;-80
2021/04/25 08:46:27;;;;;;;10.35;4.60;;;;;;;12.06;43.09;101229.06;5069385;28;20037;-80
2021/04/25 08:48:55;;;;;;;8.30;4.18;;;;;;;12.02;44.01;101224.78;5068866;28;20349;-82
2021/04/25 08:51:23;;;;;;;11.20;4.13;;;;;;;12.03;43.28;101229.16;5063957;28;20055;-81
2021/04/25 08:53:50;;;;;;;12.48;4.28;;;;;;;12.02;43.94;101230.09;5066341;28;20055;-80
2021/04/25 08:56:19;;;;;;;11.02;4.50;;;;;;;11.70;43.68;101226.00;5067355;28;20045;-82
2021/04/25 08:58:47;;;;;;;8.98;3.78;;;;;;;11.36;44.69;101229.06;5041710;28;20049;-82
2021/04/25 09:01:14;;;;;;;15.07;4.20;;;;;;;11.27;45.81;101234.72;5058630;28;20064;-84
2021/04/25 09:03:41;;;;;;;8.52;4.30;;;;;;;11.19;46.15;101218.19;5067163;28;20056;-84
2021/04/25 09:06:12;;;;;;;7.75;4.22;;;;;;;11.35;44.89;101224.69;5062809;28;20051;-81
2021/04/25 09:08:48;;;;;;;11.38;3.42;;;;;;;11.52;44.50;101232.00;5054393;28;20056;-80
2021/04/25 09:11:30;;;;;;;7.60;3.65;;;;;;;11.48;44.57;101231.28;5066491;28;20080;-83
2021/04/25 09:14:16;;;;;;;9.73;4.10;;;;;;;10.98;45.75;101229.59;5063860;28;20112;-81
2021/04/25 09:16:59;;;;;;;9.80;3.67;;;;;;;10.80;47.02;101231.97;5070807;28;20044;-82
2021/04/25 09:19:47;;;;;;;11.18;4.43;;;;;;;10.82;46.92;101232.78;5062507;28;20082;-82
2021/04/25 09:22:13;;;;;;;7.97;4.20;;;;;;;10.83;46.15;101213.31;5082197;28;20029;-81
2021/04/25 09:24:41;;;;;;;6.90;3.72;;;;;;;11.00;45.70;101233.94;5077469;28;20053;-81
2021/04/25 09:27:08;;;;;;;9.90;3.88;;;;;;;11.12;46.01;101230.84;5076077;28;20072;-82
2021/04/25 09:29:50;;;;;;;8.18;3.50;;;;;;;11.11;46.47;101220.28;5076253;28;20045;-82
2021/04/25 09:32:26;;;;;;;9.55;3.80;;;;;;;11.09;46.17;101215.03;5059764;28;20832;-80
2021/04/25 09:35:16;;;;;;;10.85;4.10;;;;;;;11.10;45.52;101223.84;5072306;28;20053;-80
2021/04/25 09:37:45;;;;;;;6.93;3.58;;;;;;;10.99;45.73;101218.94;5078172;28;20068;-78
2021/04/25 09:40:15;;;;;;;7.95;4.25;;;;;;;11.03;44.83;101214.38;5069063;28;20076;-82
2021/04/25 09:43:06;;;;;;;8.05;4.03;;;;;;;10.92;45.75;101209.47;5067458;28;20055;-81
2021/04/25 09:45:45;;;;;;;7.65;4.25;;;;;;;10.94;45.66;101206.75;5067215;28;20037;-81
2021/04/25 09:48:18;;;;;;;8.93;3.83;;;;;;;11.11;45.09;101207.91;5057604;28;20032;-80
2021/04/25 09:50:45;;;;;;;8.07;4.28;;;;;;;11.16;44.79;101210.38;5072417;28;20104;-80
2021/04/25 09:53:18;;;;;;;10.45;4.15;;;;;;;11.23;45.15;101215.41;5070037;28;20053;-84
2021/04/25 09:55:58;;;;;;;9.27;4.88;;;;;;;11.41;44.56;101202.38;5069642;28;20048;-82
2021/04/25 09:58:27;;;;;;;6.60;3.88;;;;;;;11.48;44.98;101196.81;5050869;28;20117;-81
2021/04/25 10:01:02;;;;;;;8.32;4.45;;;;;;;11.55;43.26;101200.94;5047986;28;20056;-82
2021/04/25 10:03:36;;;;;;;10.30;4.28;;;;;;;11.48;43.67;101202.09;5067974;28;20072;-82
2021/04/25 10:06:07;;;;;;;7.85;3.83;;;;;;;11.53;43.38;101200.13;5066281;28;20041;-82
2021/04/25 10:08:38;;;;;;;9.32;4.40;;;;;;;11.49;43.59;101187.88;5068285;28;20053;-82
2021/04/25 10:11:12;;;;;;;8.13;4.60;;;;;;;11.67;43.83;101201.38;5079352;28;20044;-83
2021/04/25 10:13:44;;;;;;;7.20;4.18;;;;;;;11.79;43.71;101195.66;5072482;28;20053;-83
2021/04/25 10:16:20;;;;;;;9.10;4.07;;;;;;;11.97;41.32;101194.91;5067730;28;20033;-90
2021/04/25 10:18:50;;;;;;;11.70;4.25;;;;;;;12.17;42.06;101204.72;5058498;28;20358;-84
2021/04/25 10:21:21;;;;;;;7.68;4.07;;;;;;;12.22;42.41;101198.31;5062868;28;20109;-83
2021/04/25 10:23:48;;;;;;;12.55;4.75;;;;;;;12.18;41.12;101191.38;5077873;28;20068;-82
2021/04/25 10:26:21;;;;;;;8.85;4.20;;;;;;;12.25;42.31;101198.19;5058179;28;20076;-84
2021/04/25 10:28:55;;;;;;;9.15;4.57;;;;;;;12.30;41.46;101196.19;5072225;28;20107;-82
2021/04/25 10:31:28;;;;;;;12.00;4.90;;;;;;;12.34;41.15;101188.09;5076194;28;20056;-83
2021/04/25 10:34:04;;;;;;;10.63;4.05;;;;;;;12.39;41.02;101188.78;5062336;28;20063;-82
2021/04/25 10:36:57;;;;;;;12.75;4.43;;;;;;;12.38;40.41;101189.72;5055222;28;20049;-83
2021/04/25 10:39:54;;;;;;;10.07;4.80;;;;;;;12.16;40.55;101185.25;5064908;28;20049;-82
2021/04/25 10:42:28;;;;;;;10.63;4.47;;;;;;;12.07;41.40;101185.66;5058921;28;20798;-83
2021/04/25 10:47:24;;;;;;;10.13;4.35;;;;;;;12.48;40.40;101188.38;5059661;28;20072;-82
2021/04/25 10:49:54;;;;;;;7.78;4.07;;;;;;;12.66;40.37;101190.25;5067666;28;20053;-81
2021/04/25 10:52:35;;;;;;;8.75;4.75;;;;;;;12.68;40.37;101183.09;5064089;28;20045;-82
2021/04/25 10:55:17;;;;;;;10.82;4.15;;;;;;;12.64;40.54;101168.19;5059830;28;20045;-81
2021/04/25 10:58:07;;;;;;;9.02;4.40;;;;;;;12.66;39.60;101174.31;5054633;28;20046;-82
2021/04/25 11:00:40;;;;;;;10.55;3.90;;;;;;;12.63;40.70;101174.44;5060091;28;20044;-81
2021/04/25 11:03:37;;;;;;;9.18;4.40;;;;;;;12.67;40.13;101165.41;5060829;28;20041;-79
2021/04/25 11:06:24;;;;;;;7.93;3.63;;;;;;;12.73;39.60;101173.13;5054299;28;20045;-83
2021/04/25 11:08:50;;;;;;;8.30;3.60;;;;;;;12.80;39.38;101171.06;5062066;28;20049;-84
2021/04/25 11:11:39;;;;;;;8.20;3.83;;;;;;;12.87;38.85;101170.72;5060629;28;20083;-83
2021/04/25 11:14:08;;;;;;;10.65;4.85;;;;;;;12.88;39.32;101159.16;5060630;28;20049;-83
2021/04/25 11:16:36;;;;;;;7.10;3.65;;;;;;;12.86;38.18;101161.03;5064168;28;20068;-83
2021/04/25 11:19:06;;;;;;;8.00;4.10;;;;;;;12.68;39.10;101153.84;5068752;28;20044;-83
2021/04/25 11:24:06;;;;;;;7.93;4.00;;;;;;;13.03;38.67;101154.09;5064834;28;20108;-81
2021/04/25 11:26:39;;;;;;;6.28;3.35;;;;;;;13.17;37.35;101149.03;5063615;28;20042;-82
2021/04/25 11:29:42;;;;;;;8.02;3.50;;;;;;;13.26;37.23;101154.78;5062014;28;20442;-82
2021/04/25 11:32:23;;;;;;;7.78;3.63;;;;;;;13.12;37.19;101158.97;5060469;28;20080;-83
2021/04/25 11:35:04;;;;;;;7.30;4.10;;;;;;;12.81;38.57;101149.72;5040394;28;20132;-80
2021/04/25 11:37:32;;;;;;;9.02;4.20;;;;;;;12.53;39.30;101143.91;5059274;28;20109;-81
2021/04/25 11:40:02;;;;;;;8.23;3.95;;;;;;;12.56;39.13;101146.44;5074874;28;20053;-80